Time;durP1;ratioP1;P1;durP2;ratioP2;P2;SDS_P1;SDS_P2;PMS_P1;PMS_P2;Temp;Humidity;BMP_temperature;BMP_pressure;BME280_temperature;BME280_humidity;BME280_pressure;Samples;Min_cycle;Max_cycle;Signal;HPM_P1;HPM_P2
2023/02/16 00:01:26;;;;;;;56.73;36.73;;;6.90;99.90;;;;;;5097725;28;20228;-78
2023/02/16 00:03:55;;;;;;;56.43;38.63;;;6.90;99.90;;;;;;5096575;28;20200;-77
2023/02/16 00:06:23;;;;;;;56.73;37.90;;;6.90;99.90;;;;;;5096860;28;20201;-76
2023/02/16 00:08:53;;;;;;;56.63;38.27;;;6.80;99.90;;;;;;5096242;28;20377;-76
2023/02/16 00:14:11;;;;;;;62.23;38.87;;;6.70;99.90;;;;;;5099103;28;20332;-89
2023/02/16 00:16:38;;;;;;;61.97;43.13;;;6.70;99.90;;;;;;5096619;28;20428;-87
2023/02/16 00:19:19;;;;;;;57.67;38.43;;;6.80;99.90;;;;;;5097144;28;20547;-85
2023/02/16 00:21:50;;;;;;;58.97;39.33;;;6.80;99.90;;;;;;5099547;28;20205;-84
2023/02/16 00:24:20;;;;;;;59.63;40.10;;;6.80;99.90;;;;;;5098905;28;20197;-85
2023/02/16 00:26:50;;;;;;;59.80;39.63;;;6.80;99.90;;;;;;5095706;28;20284;-78
2023/02/16 00:29:20;;;;;;;65.07;39.10;;;6.70;99.90;;;;;;5085656;28;20209;-79
2023/02/16 00:31:48;;;;;;;58.73;39.13;;;6.70;99.90;;;;;;5097486;28;20229;-75
2023/02/16 00:34:30;;;;;;;59.53;38.03;;;6.60;99.90;;;;;;5096100;28;20209;-77
2023/02/16 00:36:58;;;;;;;59.07;39.03;;;6.60;99.90;;;;;;5096585;28;20193;-76
2023/02/16 00:39:30;;;;;;;60.83;40.23;;;6.60;99.90;;;;;;5096357;28;20201;-77
2023/02/16 00:42:00;;;;;;;66.03;49.97;;;6.60;99.90;;;;;;5081148;28;20456;-74
2023/02/16 00:44:32;;;;;;;63.97;42.87;;;6.50;99.90;;;;;;5096026;28;20290;-76
2023/02/16 00:47:02;;;;;;;62.53;41.13;;;6.50;99.90;;;;;;5095565;28;20210;-78
2023/02/16 00:49:35;;;;;;;61.30;39.27;;;6.50;99.90;;;;;;5096696;28;20211;-77
2023/02/16 00:52:09;;;;;;;63.17;40.20;;;6.40;99.90;;;;;;5097229;28;20201;-81
2023/02/16 00:54:40;;;;;;;58.53;39.97;;;6.40;99.90;;;;;;5096284;28;20200;-77
2023/02/16 00:57:16;;;;;;;70.13;39.53;;;6.30;99.90;;;;;;5097632;28;20232;-76
2023/02/16 00:59:45;;;;;;;58.30;39.57;;;6.40;99.90;;;;;;5077150;28;20201;-83
2023/02/16 01:02:14;;;;;;;57.57;38.87;;;6.40;99.90;;;;;;5090038;28;20211;-77
2023/02/16 01:04:41;;;;;;;58.10;38.87;;;6.40;99.90;;;;;;5097297;28;20198;-80
2023/02/16 01:12:43;;;;;;;66.40;40.43;;;6.40;99.90;;;;;;5084451;28;20229;-83
2023/02/16 01:15:15;;;;;;;66.20;40.07;;;6.40;99.90;;;;;;5084086;28;20202;-82
2023/02/16 01:17:42;;;;;;;60.10;40.43;;;6.40;99.90;;;;;;5097235;28;20202;-75
2023/02/16 01:20:15;;;;;;;60.43;39.93;;;6.30;99.90;;;;;;5097063;28;20276;-76
2023/02/16 01:22:44;;;;;;;58.50;39.53;;;6.30;99.90;;;;;;5096650;28;20197;-75
2023/02/16 01:25:12;;;;;;;59.63;40.33;;;6.30;99.90;;;;;;5097186;28;20208;-75
2023/02/16 01:27:49;;;;;;;60.80;39.67;;;6.40;99.90;;;;;;5098179;28;20197;-75
2023/02/16 01:30:19;;;;;;;58.07;39.50;;;6.50;99.90;;;;;;5098383;28;20209;-76
2023/02/16 01:32:50;;;;;;;60.30;40.33;;;6.50;99.90;;;;;;5097016;28;20671;-77
2023/02/16 01:35:19;;;;;;;58.33;39.37;;;6.40;99.90;;;;;;5097777;28;20289;-74
2023/02/16 01:37:47;;;;;;;62.07;40.73;;;6.30;99.90;;;;;;5098483;28;20201;-75
2023/02/16 01:40:37;;;;;;;61.70;40.47;;;6.30;99.90;;;;;;5098068;28;20284;-78
2023/02/16 01:43:10;;;;;;;61.97;41.20;;;6.40;99.90;;;;;;5097432;28;20219;-75
2023/02/16 01:45:41;;;;;;;58.70;39.40;;;6.20;99.90;;;;;;5098176;28;20212;-77
2023/02/16 01:48:18;;;;;;;63.97;41.50;;;6.20;99.90;;;;;;5078897;28;20206;-75
2023/02/16 01:50:54;;;;;;;61.87;40.93;;;6.20;99.90;;;;;;5087137;28;20236;-75
2023/02/16 01:53:29;;;;;;;62.47;41.27;;;6.20;99.90;;;;;;5089785;28;20724;-75
2023/02/16 01:56:02;;;;;;;60.17;40.60;;;6.10;99.90;;;;;;5096549;28;20209;-75
2023/02/16 01:58:37;;;;;;;59.77;39.63;;;6.20;99.90;;;;;;5101777;28;20228;-77
2023/02/16 02:01:41;;;;;;;62.43;41.03;;;6.20;99.90;;;;;;5101982;28;20196;-75
2023/02/16 02:07:12;;;;;;;65.13;42.03;;;6.20;99.90;;;;;;5103153;28;20284;-75
2023/02/16 02:09:43;;;;;;;62.23;41.27;;;6.20;99.90;;;;;;5102006;28;20201;-75
2023/02/16 02:12:18;;;;;;;62.90;39.83;;;6.20;99.90;;;;;;5101758;28;20236;-75
2023/02/16 02:14:48;;;;;;;65.27;40.00;;;6.20;99.90;;;;;;5102505;28;20192;-76
2023/02/16 02:17:20;;;;;;;59.70;39.80;;;6.20;99.90;;;;;;5101821;28;20609;-75
2023/02/16 02:19:55;;;;;;;61.97;39.43;;;6.20;99.90;;;;;;5102405;28;20247;-75
2023/02/16 02:23:32;;;;;;;61.10;40.03;;;6.20;99.90;;;;;;5101921;28;20201;-75
2023/02/16 02:26:50;;;;;;;60.87;40.03;;;6.20;99.90;;;;;;5094246;28;20269;-75
2023/02/16 02:29:44;;;;;;;63.53;40.10;;;6.10;99.90;;;;;;5089120;28;20201;-76
2023/02/16 02:32:21;;;;;;;58.37;38.10;;;6.20;99.90;;;;;;5099653;28;20600;-75
2023/02/16 02:35:05;;;;;;;60.17;39.23;;;6.30;99.90;;;;;;5100073;28;20243;-77
2023/02/16 02:37:44;;;;;;;58.03;38.07;;;6.40;99.90;;;;;;5100961;28;20205;-77
2023/02/16 02:40:18;;;;;;;60.67;39.67;;;6.30;99.90;;;;;;5102479;28;20288;-77
2023/02/16 02:42:55;;;;;;;58.03;38.37;;;6.30;99.90;;;;;;5101162;28;20209;-75
2023/02/16 02:45:24;;;;;;;59.07;38.70;;;6.30;99.90;;;;;;5101850;28;20216;-74
2023/02/16 02:47:54;;;;;;;57.80;36.97;;;6.40;99.90;;;;;;5097259;28;20212;-76
2023/02/16 02:50:37;;;;;;;50.67;36.23;;;6.40;99.90;;;;;;5097129;28;20215;-75
2023/02/16 02:53:11;;;;;;;54.97;38.50;;;6.40;99.90;;;;;;5096934;28;20194;-75
2023/02/16 03:01:18;;;;;;;55.07;37.27;;;6.40;99.90;;;;;;5096624;28;20271;-75
2023/02/16 03:03:48;;;;;;;57.00;37.37;;;6.40;99.90;;;;;;5096410;28;20208;-75
2023/02/16 03:06:23;;;;;;;55.10;37.70;;;6.40;99.90;;;;;;5094755;28;20645;-76
2023/02/16 03:08:54;;;;;;;51.43;36.83;;;6.30;99.90;;;;;;5096186;28;20196;-79
2023/02/16 03:14:14;;;;;;;53.10;36.27;;;6.30;99.90;;;;;;5096276;28;20236;-74
2023/02/16 03:16:44;;;;;;;51.17;35.47;;;6.20;99.90;;;;;;5096318;28;20201;-76
2023/02/16 03:30:23;;;;;;;55.33;37.63;;;6.40;99.90;;;;;;5095953;28;20208;-77
2023/02/16 03:32:51;;;;;;;53.43;37.03;;;6.50;99.90;;;;;;5095314;28;20209;-75
2023/02/16 03:35:24;;;;;;;51.50;37.00;;;6.50;99.90;;;;;;5095445;28;20213;-76
2023/02/16 03:37:50;;;;;;;57.80;37.70;;;6.50;99.90;;;;;;5095665;28;20204;-76
2023/02/16 03:43:02;;;;;;;61.88;48.15;;;6.50;99.90;;;;;;5092301;28;20834;-75
2023/02/16 03:45:31;;;;;;;54.93;39.23;;;6.70;99.90;;;;;;5095314;28;20644;-75
2023/02/16 03:47:58;;;;;;;53.70;36.10;;;6.80;99.90;;;;;;5094622;28;20201;-75
2023/02/16 03:50:26;;;;;;;55.63;38.07;;;6.80;99.90;;;;;;5094493;28;20213;-75
2023/02/16 03:53:05;;;;;;;50.47;35.47;;;6.90;99.90;;;;;;5093957;28;20282;-75
2023/02/16 03:55:32;;;;;;;52.27;36.10;;;6.80;99.90;;;;;;5094288;28;20283;-78
2023/02/16 03:57:59;;;;;;;54.33;35.23;;;6.80;99.90;;;;;;5093915;28;20220;-77
2023/02/16 04:00:28;;;;;;;49.33;34.13;;;6.80;99.90;;;;;;5093858;28;20567;-75
2023/02/16 04:02:56;;;;;;;49.53;34.80;;;6.70;99.90;;;;;;5093852;28;20664;-74
2023/02/16 04:05:23;;;;;;;48.33;34.57;;;6.70;99.90;;;;;;5094004;28;20201;-76
2023/02/16 04:07:50;;;;;;;46.73;33.87;;;6.80;99.90;;;;;;5093692;28;20201;-76
2023/02/16 04:10:22;;;;;;;49.50;35.37;;;6.80;99.90;;;;;;5094204;28;20193;-76
2023/02/16 04:12:48;;;;;;;49.27;34.23;;;6.70;99.90;;;;;;5093640;28;20235;-76
2023/02/16 04:15:18;;;;;;;46.90;33.93;;;6.80;99.90;;;;;;5094010;28;20201;-76
2023/02/16 04:17:46;;;;;;;50.70;35.57;;;6.90;99.90;;;;;;5083251;28;20193;-76
2023/02/16 04:20:16;;;;;;;49.17;34.43;;;6.90;99.90;;;;;;5086011;28;20205;-76
2023/02/16 04:22:43;;;;;;;52.03;35.13;;;6.80;99.90;;;;;;5089096;28;20204;-76
2023/02/16 04:25:10;;;;;;;50.37;34.33;;;6.80;99.90;;;;;;5093534;28;20699;-75
2023/02/16 04:27:38;;;;;;;49.87;33.70;;;6.80;99.90;;;;;;5093357;28;20206;-75
2023/02/16 04:30:07;;;;;;;51.30;35.07;;;6.90;99.90;;;;;;5087992;28;20220;-77
2023/02/16 04:32:34;;;;;;;51.13;33.90;;;6.90;99.90;;;;;;5087973;28;20244;-76
2023/02/16 04:35:00;;;;;;;50.83;33.50;;;6.90;99.90;;;;;;5092912;28;20212;-75
2023/02/16 04:37:29;;;;;;;48.20;33.70;;;7.00;99.90;;;;;;5093092;28;20205;-75
2023/02/16 04:39:56;;;;;;;45.43;33.60;;;7.00;99.90;;;;;;5093226;28;20206;-75
2023/02/16 04:42:23;;;;;;;47.00;34.37;;;7.00;99.90;;;;;;5093436;28;20204;-77
2023/02/16 04:44:49;;;;;;;50.90;33.97;;;7.10;99.90;;;;;;5093006;28;20220;-75
2023/02/16 04:47:19;;;;;;;47.23;33.90;;;7.10;99.90;;;;;;5094016;28;20213;-74
2023/02/16 04:49:45;;;;;;;47.20;33.23;;;6.90;99.90;;;;;;5094172;28;20194;-75
2023/02/16 04:52:13;;;;;;;51.03;33.67;;;7.00;99.90;;;;;;5095045;28;20279;-76
2023/02/16 04:54:42;;;;;;;46.93;33.87;;;7.00;99.90;;;;;;5094857;28;20592;-78
2023/02/16 04:57:09;;;;;;;48.50;33.20;;;7.10;99.90;;;;;;5095675;28;20268;-75
2023/02/16 04:59:40;;;;;;;47.53;32.70;;;7.10;99.90;;;;;;5094950;28;20250;-74
2023/02/16 05:02:13;;;;;;;50.17;36.17;;;7.20;99.90;;;;;;5095720;28;20456;-81
2023/02/16 05:04:43;;;;;;;48.53;34.33;;;7.20;99.90;;;;;;5095453;28;20614;-77
2023/02/16 05:07:12;;;;;;;49.47;32.77;;;7.20;99.90;;;;;;5095788;28;20197;-77
2023/02/16 05:09:46;;;;;;;45.87;31.60;;;7.00;99.90;;;;;;5083064;28;20205;-85
2023/02/16 05:14:57;;;;;;;43.33;31.73;;;7.10;99.90;;;;;;5092492;28;20266;-75
2023/02/16 05:17:27;;;;;;;46.67;31.67;;;7.00;99.90;;;;;;5088833;28;20215;-75
2023/02/16 05:19:56;;;;;;;46.33;32.43;;;7.00;99.90;;;;;;5097099;28;20232;-74
2023/02/16 05:22:23;;;;;;;46.20;31.70;;;7.00;99.90;;;;;;5097007;28;20334;-75
2023/02/16 05:24:52;;;;;;;43.70;32.10;;;7.00;99.90;;;;;;5096461;28;20208;-75
2023/02/16 05:27:21;;;;;;;48.23;32.63;;;7.00;99.90;;;;;;5094374;28;20201;-75
2023/02/16 05:29:48;;;;;;;50.95;39.30;;;7.00;99.90;;;;;;5085796;28;20423;-78
2023/02/16 05:32:15;;;;;;;46.13;33.40;;;7.20;99.90;;;;;;5088044;28;20237;-77
2023/02/16 05:34:43;;;;;;;46.17;31.83;;;6.90;99.90;;;;;;5094210;28;20220;-76
2023/02/16 05:37:10;;;;;;;42.37;30.03;;;6.90;99.90;;;;;;5094719;28;20551;-75
2023/02/16 05:39:37;;;;;;;44.00;30.83;;;7.00;99.90;;;;;;5094057;28;20212;-75
2023/02/16 05:42:06;;;;;;;45.40;32.93;;;7.10;99.90;;;;;;5094466;28;20213;-75
2023/02/16 05:44:33;;;;;;;44.77;30.87;;;7.10;99.90;;;;;;5093738;28;20295;-76
2023/02/16 05:47:00;;;;;;;44.23;30.67;;;7.10;99.90;;;;;;5094101;28;20197;-76
2023/02/16 05:49:27;;;;;;;40.93;30.83;;;7.20;99.90;;;;;;5094427;28;20216;-78
2023/02/16 05:51:53;;;;;;;46.97;30.97;;;7.10;99.90;;;;;;5093299;28;20247;-76
2023/02/16 05:54:20;;;;;;;44.37;30.30;;;7.20;99.90;;;;;;5092993;28;20212;-75
2023/02/16 05:56:49;;;;;;;44.33;30.10;;;7.20;99.90;;;;;;5079826;28;20205;-76
2023/02/16 05:59:18;;;;;;;43.43;30.97;;;7.20;99.90;;;;;;5093613;28;20201;-78
2023/02/16 06:01:45;;;;;;;46.17;31.70;;;7.10;99.90;;;;;;5092723;28;20216;-76
2023/02/16 06:04:13;;;;;;;41.27;29.17;;;7.10;99.90;;;;;;5093570;28;20197;-77
2023/02/16 06:06:42;;;;;;;49.43;31.60;;;7.10;99.90;;;;;;5093569;28;20201;-76
2023/02/16 06:09:09;;;;;;;41.57;30.23;;;7.00;99.90;;;;;;5093678;28;20712;-76
2023/02/16 06:11:36;;;;;;;41.83;29.97;;;7.00;99.90;;;;;;5093205;28;20213;-75
2023/02/16 06:14:07;;;;;;;41.87;30.30;;;7.10;99.90;;;;;;5093537;28;20224;-75
2023/02/16 06:16:36;;;;;;;43.40;29.73;;;7.10;99.90;;;;;;5093898;28;20201;-76
2023/02/16 06:19:05;;;;;;;39.33;30.07;;;7.20;99.90;;;;;;5094502;28;20201;-76
2023/02/16 06:21:34;;;;;;;44.33;31.27;;;7.40;99.90;;;;;;5095518;28;20587;-75
2023/02/16 06:24:01;;;;;;;45.47;30.63;;;7.40;99.90;;;;;;5093868;28;20201;-79
2023/02/16 06:26:28;;;;;;;41.40;30.30;;;7.40;99.90;;;;;;5093051;28;20205;-76
2023/02/16 06:28:55;;;;;;;42.10;29.87;;;7.20;99.90;;;;;;5093283;28;20205;-75
2023/02/16 06:31:22;;;;;;;39.70;29.40;;;7.30;99.90;;;;;;5092919;28;20205;-76
2023/02/16 06:33:51;;;;;;;42.27;29.63;;;7.20;99.90;;;;;;5093087;28;20207;-77
2023/02/16 06:36:18;;;;;;;46.20;30.00;;;7.40;99.90;;;;;;5093051;28;20201;-76
2023/02/16 06:38:45;;;;;;;44.00;29.37;;;7.40;99.90;;;;;;5093225;28;20544;-75
2023/02/16 06:41:12;;;;;;;41.60;29.67;;;7.40;99.90;;;;;;5095715;28;20197;-77
2023/02/16 06:43:39;;;;;;;41.10;29.83;;;7.50;99.90;;;;;;5096124;28;20213;-76
2023/02/16 06:46:06;;;;;;;42.47;28.60;;;7.40;99.90;;;;;;5095849;28;20197;-76
2023/02/16 06:48:33;;;;;;;44.13;29.93;;;7.40;99.90;;;;;;5096487;28;20287;-76
2023/02/16 06:51:01;;;;;;;40.37;28.63;;;7.40;99.90;;;;;;5095978;28;20212;-75
2023/02/16 06:53:28;;;;;;;45.47;37.97;;;7.40;99.90;;;;;;5092874;28;20947;-76
2023/02/16 06:55:55;;;;;;;41.77;30.93;;;7.60;99.90;;;;;;5086975;28;20201;-77
2023/02/16 06:58:21;;;;;;;40.40;29.80;;;7.50;99.90;;;;;;5084104;28;20202;-77
2023/02/16 07:00:48;;;;;;;44.97;30.13;;;7.50;99.90;;;;;;5087360;28;21502;-79
2023/02/16 07:03:15;;;;;;;38.47;29.03;;;7.40;99.90;;;;;;5089717;28;20220;-78
2023/02/16 07:05:42;;;;;;;42.23;29.83;;;7.50;99.90;;;;;;5082162;28;20198;-78
2023/02/16 07:08:11;;;;;;;37.47;29.07;;;7.40;99.90;;;;;;5088913;28;20664;-75
2023/02/16 07:10:41;;;;;;;39.63;29.67;;;7.40;99.90;;;;;;5088700;28;20292;-77
2023/02/16 07:13:08;;;;;;;38.53;28.17;;;7.50;99.90;;;;;;5095023;28;20229;-78
2023/02/16 07:15:35;;;;;;;41.07;28.80;;;7.50;99.90;;;;;;5095872;28;20206;-77
2023/02/16 07:18:02;;;;;;;36.97;27.50;;;7.70;99.90;;;;;;5092847;28;20208;-78
2023/02/16 07:20:29;;;;;;;43.50;35.03;;;7.70;99.90;;;;;;5095194;28;20894;-76
2023/02/16 07:22:55;;;;;;;38.47;29.87;;;7.50;99.90;;;;;;5095623;28;20653;-76
2023/02/16 07:25:25;;;;;;;45.97;29.40;;;7.50;99.90;;;;;;5094522;28;20193;-79
2023/02/16 07:27:53;;;;;;;38.30;28.80;;;7.50;99.90;;;;;;5081506;28;20218;-78
2023/02/16 07:30:20;;;;;;;41.27;29.17;;;7.60;99.90;;;;;;5095568;28;20563;-77
2023/02/16 07:32:47;;;;;;;44.33;28.80;;;7.60;99.90;;;;;;5092135;28;20229;-79
2023/02/16 07:35:14;;;;;;;38.70;28.80;;;7.60;99.90;;;;;;5095079;28;20205;-78
2023/02/16 07:37:41;;;;;;;42.50;30.10;;;7.80;99.90;;;;;;5095245;28;20200;-78
2023/02/16 07:40:08;;;;;;;45.97;28.73;;;7.90;99.90;;;;;;5095475;28;20205;-77
2023/02/16 07:42:36;;;;;;;39.03;28.77;;;8.00;99.90;;;;;;5094541;28;20201;-78
2023/02/16 07:45:05;;;;;;;40.30;29.00;;;8.00;99.90;;;;;;5094880;28;20205;-76
2023/02/16 07:47:31;;;;;;;35.63;27.70;;;8.00;99.90;;;;;;5094566;28;20205;-77
2023/02/16 07:49:58;;;;;;;40.10;28.80;;;8.00;99.90;;;;;;5094631;28;20197;-77
2023/02/16 07:52:29;;;;;;;41.57;28.87;;;8.10;99.90;;;;;;5093733;28;20229;-80
2023/02/16 07:54:56;;;;;;;36.47;27.77;;;8.00;99.90;;;;;;5094809;28;20568;-79
2023/02/16 07:57:23;;;;;;;38.40;29.07;;;8.10;99.90;;;;;;5093832;28;20201;-80
2023/02/16 07:59:53;;;;;;;38.97;28.97;;;8.10;99.90;;;;;;5094974;28;20201;-81
2023/02/16 08:02:20;;;;;;;39.63;29.23;;;8.10;99.90;;;;;;5094356;28;20201;-77
2023/02/16 08:04:48;;;;;;;35.47;28.13;;;8.10;99.90;;;;;;5085653;28;20286;-76
2023/02/16 08:07:16;;;;;;;42.30;28.97;;;8.00;99.90;;;;;;5077031;28;20201;-80
2023/02/16 08:09:43;;;;;;;37.00;28.03;;;7.90;99.90;;;;;;5077969;28;20197;-78
2023/02/16 08:12:11;;;;;;;38.50;28.50;;;7.90;99.90;;;;;;5089239;28;20583;-78
2023/02/16 08:14:37;;;;;;;40.60;28.33;;;8.00;99.90;;;;;;5077223;28;20198;-78
2023/02/16 08:17:07;;;;;;;41.10;36.43;;;8.10;99.90;;;;;;5087163;28;20422;-76
2023/02/16 08:19:35;;;;;;;44.70;32.10;;;8.40;99.90;;;;;;5090849;28;20590;-78
2023/02/16 08:22:03;;;;;;;40.10;29.17;;;8.40;99.90;;;;;;5093753;28;20289;-76
2023/02/16 08:24:32;;;;;;;37.90;28.40;;;8.30;99.90;;;;;;5093736;28;20196;-75
2023/02/16 08:27:00;;;;;;;38.97;28.57;;;8.40;99.90;;;;;;5093019;28;20301;-77
2023/02/16 08:29:27;;;;;;;38.47;29.07;;;8.40;99.90;;;;;;5094154;28;20205;-77
2023/02/16 08:31:55;;;;;;;39.30;28.60;;;8.50;99.90;;;;;;5093704;28;20193;-77
2023/02/16 08:34:24;;;;;;;40.13;28.07;;;8.60;99.90;;;;;;5093411;28;20562;-78
2023/02/16 08:36:55;;;;;;;37.03;28.27;;;8.50;99.90;;;;;;5093956;28;20208;-77
2023/02/16 08:39:24;;;;;;;37.53;27.97;;;8.40;99.90;;;;;;5092688;28;20287;-77
2023/02/16 08:41:52;;;;;;;37.67;27.40;;;8.20;99.90;;;;;;5085967;28;20631;-81
2023/02/16 08:44:20;;;;;;;40.60;36.25;;;8.20;99.90;;;;;;5084072;28;20449;-76
2023/02/16 08:46:48;;;;;;;41.47;33.27;;;8.30;99.90;;;;;;5094029;28;20275;-79
2023/02/16 08:49:17;;;;;;;38.53;28.47;;;8.40;99.90;;;;;;5093832;28;20200;-78
2023/02/16 08:51:48;;;;;;;37.43;29.80;;;8.40;99.90;;;;;;5094548;28;20201;-78
2023/02/16 08:54:17;;;;;;;41.13;28.57;;;8.20;99.90;;;;;;5093846;28;20220;-78
2023/02/16 08:56:46;;;;;;;41.27;28.47;;;8.10;99.90;;;;;;5092420;28;20216;-81
2023/02/16 08:59:14;;;;;;;35.40;28.47;;;8.00;99.90;;;;;;5085116;28;20232;-83
2023/02/16 09:01:42;;;;;;;40.20;28.60;;;7.90;99.90;;;;;;5095053;28;20205;-79
2023/02/16 09:04:09;;;;;;;44.07;30.50;;;7.90;99.90;;;;;;5087123;28;20552;-79
2023/02/16 09:06:37;;;;;;;39.17;29.30;;;8.00;99.90;;;;;;5089293;28;20613;-79
2023/02/16 09:09:07;;;;;;;41.13;30.93;;;8.00;99.90;;;;;;5094336;28;20228;-85
2023/02/16 09:11:34;;;;;;;44.45;33.75;;;7.90;99.90;;;;;;5093408;28;20442;-81
2023/02/16 09:14:01;;;;;;;39.27;30.17;;;8.00;99.90;;;;;;5093985;28;20228;-83
2023/02/16 09:16:32;;;;;;;41.30;30.77;;;8.00;99.90;;;;;;5089420;28;20201;-83
2023/02/16 09:19:00;;;;;;;41.70;31.33;;;8.00;99.90;;;;;;5085802;28;20631;-81
2023/02/16 09:21:31;;;;;;;44.33;30.57;;;8.10;99.90;;;;;;5085391;28;20649;-80
2023/02/16 09:24:00;;;;;;;40.77;29.60;;;8.10;99.90;;;;;;5086368;28;20691;-82
2023/02/16 09:26:32;;;;;;;41.67;30.40;;;8.10;99.90;;;;;;5088369;28;20306;-81
2023/02/16 09:28:58;;;;;;;40.20;29.53;;;8.20;99.90;;;;;;5088436;28;20209;-80
2023/02/16 09:31:28;;;;;;;41.57;29.30;;;8.00;99.90;;;;;;5086637;28;20201;-83
2023/02/16 09:33:57;;;;;;;40.63;28.67;;;8.00;99.90;;;;;;5095979;28;20256;-80
2023/02/16 09:36:24;;;;;;;42.00;28.80;;;7.90;99.90;;;;;;5093334;28;20206;-80
2023/02/16 09:38:51;;;;;;;41.47;28.97;;;7.90;99.90;;;;;;5084179;28;20664;-83
2023/02/16 09:41:30;;;;;;;39.83;29.63;;;8.00;99.90;;;;;;5083775;28;20640;-85
2023/02/16 09:44:01;;;;;;;42.27;28.93;;;8.10;99.90;;;;;;5076754;28;20212;-81
2023/02/16 09:46:31;;;;;;;37.10;29.17;;;8.30;99.90;;;;;;5084367;28;20205;-82
2023/02/16 09:49:00;;;;;;;39.70;28.40;;;8.40;99.90;;;;;;5093740;28;20205;-83
2023/02/16 09:51:33;;;;;;;39.93;28.00;;;8.50;99.90;;;;;;5084217;28;20194;-83
2023/02/16 09:54:10;;;;;;;38.93;28.03;;;8.70;99.90;;;;;;5076073;28;20221;-85
2023/02/16 09:56:46;;;;;;;39.70;28.27;;;8.70;99.90;;;;;;5093629;28;20589;-82
2023/02/16 09:59:19;;;;;;;38.33;26.73;;;8.80;99.90;;;;;;5093935;28;20201;-80
2023/02/16 10:01:55;;;;;;;36.17;26.93;;;8.80;99.90;;;;;;5079857;28;20213;-83
2023/02/16 10:04:30;;;;;;;38.80;26.77;;;8.80;99.90;;;;;;5092435;28;20570;-80
2023/02/16 10:07:09;;;;;;;36.13;27.43;;;9.00;99.90;;;;;;5089509;28;20201;-79
2023/02/16 10:09:37;;;;;;;35.63;26.57;;;9.10;99.90;;;;;;5091989;28;20208;-81
2023/02/16 10:12:09;;;;;;;36.67;27.33;;;9.10;99.90;;;;;;5085335;28;20318;-79
2023/02/16 10:14:41;;;;;;;34.43;26.10;;;9.30;99.90;;;;;;5082463;28;20233;-79
2023/02/16 10:17:17;;;;;;;36.00;27.63;;;9.30;99.90;;;;;;5094670;28;20652;-78
2023/02/16 10:19:48;;;;;;;35.23;26.67;;;9.30;99.90;;;;;;5097224;28;20660;-79
2023/02/16 10:22:20;;;;;;;36.57;25.30;;;9.20;99.90;;;;;;5096217;28;20687;-78
2023/02/16 10:24:57;;;;;;;34.53;25.63;;;9.30;99.90;;;;;;5096243;28;20209;-79
2023/02/16 10:27:36;;;;;;;34.80;25.77;;;9.40;99.90;;;;;;5083376;28;20192;-79
2023/02/16 10:30:15;;;;;;;31.97;25.17;;;9.40;99.90;;;;;;5095047;28;20205;-79
2023/02/16 10:32:54;;;;;;;36.07;25.77;;;9.40;99.90;;;;;;5090515;28;20224;-79
2023/02/16 10:35:29;;;;;;;29.43;24.80;;;9.50;99.90;;;;;;5077790;28;20202;-79
2023/02/16 10:38:03;;;;;;;32.97;24.67;;;9.50;99.90;;;;;;5077161;28;20208;-80
2023/02/16 10:40:36;;;;;;;36.40;25.60;;;9.60;99.90;;;;;;5081461;28;20674;-78
2023/02/16 10:43:15;;;;;;;30.57;24.67;;;9.60;99.90;;;;;;5083917;28;20210;-78
2023/02/16 10:45:46;;;;;;;33.17;23.80;;;9.50;99.90;;;;;;5090786;28;20193;-79
2023/02/16 10:48:13;;;;;;;34.37;24.50;;;9.40;99.90;;;;;;5089205;28;20213;-80
2023/02/16 10:50:42;;;;;;;30.60;24.10;;;9.50;99.90;;;;;;5089085;28;20297;-77
2023/02/16 10:53:14;;;;;;;29.27;23.37;;;9.70;99.90;;;;;;5094193;28;20579;-78
2023/02/16 10:55:41;;;;;;;32.70;25.40;;;9.70;99.90;;;;;;5095722;28;20216;-78
2023/02/16 10:58:18;;;;;;;32.20;24.37;;;9.90;99.90;;;;;;5095386;28;20200;-79
2023/02/16 11:00:51;;;;;;;30.77;24.67;;;10.20;99.90;;;;;;5096035;28;20201;-81
2023/02/16 11:03:25;;;;;;;33.07;24.47;;;10.20;99.90;;;;;;5094994;28;20201;-79
2023/02/16 11:05:53;;;;;;;32.67;24.23;;;10.30;99.90;;;;;;5091631;28;20202;-81
2023/02/16 11:08:22;;;;;;;31.80;23.70;;;10.40;99.90;;;;;;5091663;28;20193;-80
2023/02/16 11:10:52;;;;;;;32.83;23.43;;;10.40;99.90;;;;;;5095263;28;20297;-79
2023/02/16 11:13:32;;;;;;;31.13;23.77;;;10.50;99.90;;;;;;5094839;28;20237;-79
2023/02/16 11:16:04;;;;;;;31.63;23.67;;;10.60;99.90;;;;;;5095203;28;20208;-78
2023/02/16 11:18:36;;;;;;;30.07;24.10;;;10.70;99.90;;;;;;5082043;28;20607;-79
2023/02/16 11:21:04;;;;;;;30.00;22.73;;;10.70;99.90;;;;;;5095041;28;20263;-78
2023/02/16 11:23:33;;;;;;;30.37;24.30;;;10.80;99.90;;;;;;5094917;28;20209;-80
2023/02/16 11:26:07;;;;;;;30.50;23.07;;;10.70;99.90;;;;;;5094975;28;20209;-79
2023/02/16 11:28:37;;;;;;;29.90;24.10;;;10.70;99.90;;;;;;5080348;28;20661;-81
2023/02/16 11:31:15;;;;;;;27.40;22.80;;;10.70;99.90;;;;;;5095288;28;20653;-79
2023/02/16 11:33:53;;;;;;;35.70;23.23;;;10.70;99.90;;;;;;5094200;28;20255;-79
2023/02/16 11:36:24;;;;;;;33.40;23.37;;;10.70;99.90;;;;;;5094456;28;20665;-78
2023/02/16 11:39:01;;;;;;;30.67;22.93;;;10.90;99.90;;;;;;5081728;28;20199;-77
2023/02/16 11:41:29;;;;;;;29.03;22.27;;;10.90;99.90;;;;;;5094641;28;20546;-80
2023/02/16 11:43:58;;;;;;;28.33;22.63;;;11.00;99.90;;;;;;5094261;28;20215;-80
2023/02/16 11:46:25;;;;;;;30.80;22.47;;;10.90;99.90;;;;;;5094346;28;20210;-79
2023/02/16 11:48:52;;;;;;;28.43;22.20;;;11.00;99.90;;;;;;5094255;28;20228;-80
2023/02/16 11:51:35;;;;;;;29.23;22.23;;;11.10;99.90;;;;;;5094570;28;20202;-79
2023/02/16 11:54:04;;;;;;;30.97;22.27;;;11.10;99.90;;;;;;5094184;28;20226;-79
2023/02/16 11:56:32;;;;;;;31.35;25.70;;;11.10;99.90;;;;;;5093859;28;20422;-77
2023/02/16 11:59:17;;;;;;;30.47;23.20;;;11.30;99.90;;;;;;5093943;28;20568;-80
2023/02/16 12:02:28;;;;;;;29.13;23.13;;;11.30;99.90;;;;;;5094308;28;20211;-80
2023/02/16 12:05:09;;;;;;;29.57;22.03;;;11.30;99.90;;;;;;5093870;28;20199;-79
2023/02/16 12:07:42;;;;;;;32.17;22.47;;;11.50;99.90;;;;;;5094208;28;20211;-78
2023/02/16 12:10:12;;;;;;;30.00;21.97;;;11.50;99.90;;;;;;5094057;28;20212;-79
2023/02/16 12:12:47;;;;;;;25.93;20.73;;;11.70;99.90;;;;;;5093695;28;20223;-80
2023/02/16 12:15:24;;;;;;;27.97;22.43;;;11.80;99.90;;;;;;5094104;28;20230;-80
2023/02/16 12:18:03;;;;;;;25.40;20.60;;;11.90;99.90;;;;;;5093525;28;20292;-79
2023/02/16 12:20:43;;;;;;;30.90;21.57;;;12.00;99.90;;;;;;5093736;28;20207;-77
2023/02/16 12:23:25;;;;;;;28.67;21.23;;;12.10;99.90;;;;;;5093881;28;20716;-80
2023/02/16 12:26:04;;;;;;;30.30;20.53;;;12.20;99.90;;;;;;5093737;28;20197;-79
2023/02/16 12:28:40;;;;;;;26.07;19.33;;;12.30;99.90;;;;;;5093526;28;20283;-80
2023/02/16 12:31:20;;;;;;;24.50;17.77;;;12.40;99.90;;;;;;5093832;28;20216;-79
2023/02/16 12:33:53;;;;;;;30.70;18.53;;;12.30;99.90;;;;;;5092441;28;20228;-77
2023/02/16 12:36:46;;;;;;;27.03;20.03;;;12.30;99.90;;;;;;5081522;28;20680;-79
2023/02/16 12:39:18;;;;;;;31.33;19.53;;;12.40;99.90;;;;;;5082291;28;20257;-81
2023/02/16 12:41:58;;;;;;;23.50;19.03;;;12.30;99.90;;;;;;5093461;28;20298;-78
2023/02/16 12:44:32;;;;;;;26.80;20.87;;;12.20;99.90;;;;;;5093136;28;20211;-79
2023/02/16 12:47:03;;;;;;;24.30;19.27;;;12.20;99.90;;;;;;5092952;28;20223;-79
2023/02/16 12:49:35;;;;;;;29.83;19.37;;;12.30;99.90;;;;;;5093364;28;20200;-80
2023/02/16 12:52:09;;;;;;;30.33;20.27;;;12.40;99.90;;;;;;5093068;28;20196;-80
2023/02/16 12:54:40;;;;;;;27.60;19.23;;;12.40;99.90;;;;;;5093145;28;20220;-80
2023/02/16 12:57:12;;;;;;;25.63;20.37;;;12.30;99.90;;;;;;5083773;28;20220;-80
2023/02/16 12:59:45;;;;;;;28.73;20.80;;;12.40;99.90;;;;;;5090276;28;20196;-80
2023/02/16 13:02:22;;;;;;;33.20;20.33;;;12.40;99.90;;;;;;5093023;28;20207;-79
2023/02/16 13:04:56;;;;;;;29.40;20.93;;;12.50;99.90;;;;;;5093132;28;20198;-80
2023/02/16 13:07:30;;;;;;;29.67;20.73;;;12.60;99.90;;;;;;5092875;28;20664;-78
2023/02/16 13:10:04;;;;;;;29.73;19.70;;;12.60;99.90;;;;;;5093051;28;20203;-79
2023/02/16 13:12:35;;;;;;;34.57;20.53;;;12.60;99.90;;;;;;5092447;28;20723;-81
2023/02/16 13:15:10;;;;;;;30.80;21.03;;;12.60;99.90;;;;;;5092364;28;20703;-78
2023/02/16 13:17:42;;;;;;;32.77;19.37;;;12.70;99.90;;;;;;5092522;28;20211;-78
2023/02/16 13:20:15;;;;;;;25.93;19.97;;;12.80;99.90;;;;;;5093168;28;20691;-80
2023/02/16 13:23:24;;;;;;;24.43;18.83;;;12.70;99.90;;;;;;5078410;28;20205;-79
2023/02/16 13:26:10;;;;;;;27.37;19.73;;;12.60;99.90;;;;;;5067326;28;20210;-78
2023/02/16 13:29:05;;;;;;;27.97;19.03;;;12.50;99.90;;;;;;5088627;28;20540;-78
2023/02/16 13:31:48;;;;;;;29.90;20.33;;;12.70;99.90;;;;;;5090539;28;20208;-78
2023/02/16 13:34:55;;;;;;;26.63;19.03;;;12.80;99.90;;;;;;5090602;28;20235;-80